createdAt,value
2022-11-14T00:01:18.147Z,0.00
2022-11-14T00:03:46.609Z,0.00
2022-11-14T00:06:15.022Z,0.00
2022-11-14T00:08:43.493Z,0.00
2022-11-14T00:11:11.924Z,0.00
2022-11-14T00:13:41.761Z,0.00
2022-11-14T00:16:10.169Z,0.00
2022-11-14T00:18:38.629Z,0.00
2022-11-14T00:21:07.084Z,0.00
2022-11-14T00:23:35.553Z,0.00
2022-11-14T00:26:03.962Z,0.00
2022-11-14T00:28:32.692Z,0.00
2022-11-14T00:31:02.835Z,0.00
2022-11-14T00:33:31.282Z,0.00
2022-11-14T00:35:59.706Z,0.00
2022-11-14T00:38:28.496Z,0.00
2022-11-14T00:40:57.120Z,0.00
2022-11-14T00:43:25.601Z,0.00
2022-11-14T00:45:54.015Z,0.00
2022-11-14T00:48:24.009Z,0.00
2022-11-14T00:50:52.398Z,0.00
2022-11-14T00:53:20.890Z,0.00
2022-11-14T00:55:49.288Z,0.00
2022-11-14T00:58:17.742Z,0.00
2022-11-14T01:00:46.199Z,0.00
2022-11-14T01:03:14.717Z,0.00
2022-11-14T01:05:45.223Z,0.00
2022-11-14T01:08:13.977Z,0.00
2022-11-14T01:10:42.511Z,0.00
2022-11-14T01:13:11.024Z,0.00
2022-11-14T01:15:41.202Z,0.10
2022-11-14T01:18:09.685Z,0.00
2022-11-14T01:20:40.630Z,0.00
2022-11-14T01:23:10.759Z,0.00
2022-11-14T01:25:39.777Z,0.00
2022-11-14T01:28:08.744Z,0.00
2022-11-14T01:30:37.301Z,0.00
2022-11-14T01:33:06.268Z,0.00
2022-11-14T01:35:35.038Z,0.00
2022-11-14T01:38:03.554Z,0.00
2022-11-14T01:40:34.063Z,0.00
2022-11-14T01:43:22.957Z,0.00
2022-11-14T01:45:54.007Z,0.00
2022-11-14T01:48:23.290Z,0.00
2022-11-14T01:50:55.825Z,0.00
2022-11-14T01:53:24.430Z,0.00
2022-11-14T01:55:55.074Z,0.00
2022-11-14T01:58:24.101Z,0.00
2022-11-14T02:00:52.528Z,0.00
2022-11-14T02:03:21.437Z,0.00
2022-11-14T02:05:50.665Z,0.00
2022-11-14T02:08:19.807Z,0.00
2022-11-14T02:10:48.285Z,0.00
2022-11-14T02:13:18.122Z,0.00
2022-11-14T02:15:46.545Z,0.00
2022-11-14T02:18:15.008Z,0.00
2022-11-14T02:20:44.794Z,0.00
2022-11-14T02:23:13.756Z,0.00
2022-11-14T02:25:42.605Z,0.00
2022-11-14T02:28:11.631Z,0.00
2022-11-14T02:30:40.319Z,0.00
2022-11-14T02:33:11.236Z,0.00
2022-11-14T02:35:40.527Z,0.00
2022-11-14T02:38:10.450Z,0.00
2022-11-14T02:40:38.852Z,0.00
2022-11-14T02:43:07.310Z,0.00
2022-11-14T02:45:35.983Z,0.00
2022-11-14T02:48:04.434Z,0.00
2022-11-14T02:50:32.876Z,0.00
2022-11-14T02:53:01.324Z,0.00
2022-11-14T02:55:31.162Z,0.00
2022-11-14T02:57:59.622Z,0.00
2022-11-14T03:00:28.208Z,0.00
2022-11-14T03:02:56.765Z,0.00
2022-11-14T03:05:25.193Z,0.00
2022-11-14T03:07:55.571Z,0.00
2022-11-14T03:10:24.224Z,0.00
2022-11-14T03:12:56.891Z,0.00
2022-11-14T03:15:25.479Z,0.00
2022-11-14T03:17:54.043Z,0.00
2022-11-14T03:20:22.424Z,0.00
2022-11-14T03:22:50.865Z,0.00
2022-11-14T03:25:19.358Z,0.00
2022-11-14T03:27:47.836Z,0.00
2022-11-14T03:30:17.727Z,0.00
2022-11-14T03:32:46.297Z,0.00
2022-11-14T03:35:14.863Z,0.00
2022-11-14T03:37:43.314Z,0.00
2022-11-14T03:40:12.095Z,0.00
2022-11-14T03:42:40.503Z,0.00
2022-11-14T03:45:09.105Z,0.00
2022-11-14T03:47:38.881Z,0.00
2022-11-14T03:50:07.829Z,0.00
2022-11-14T03:52:36.220Z,0.00
2022-11-14T03:55:04.687Z,0.00
2022-11-14T03:57:33.100Z,0.00
2022-11-14T04:00:01.550Z,0.00
2022-11-14T04:02:29.993Z,0.00
2022-11-14T04:04:59.857Z,0.00
2022-11-14T04:07:28.391Z,0.00
2022-11-14T04:09:57.111Z,0.00
2022-11-14T04:12:25.564Z,0.00
2022-11-14T04:14:54.023Z,0.00
2022-11-14T04:17:22.615Z,0.00
2022-11-14T04:19:51.495Z,0.00
2022-11-14T04:22:24.194Z,0.00
2022-11-14T04:24:52.641Z,0.00
2022-11-14T04:27:21.032Z,0.00
2022-11-14T04:29:49.466Z,0.00
2022-11-14T04:32:17.897Z,0.00
2022-11-14T04:34:46.338Z,0.00
2022-11-14T04:37:14.814Z,0.00
2022-11-14T04:39:44.642Z,0.00
2022-11-14T04:42:13.071Z,0.00
2022-11-14T04:44:41.651Z,0.00
2022-11-14T04:47:10.158Z,0.00
2022-11-14T04:49:38.622Z,0.00
2022-11-14T04:52:07.128Z,0.00
2022-11-14T04:54:35.662Z,0.00
2022-11-14T04:57:05.497Z,0.00
2022-11-14T04:59:34.014Z,0.00
2022-11-14T05:02:02.484Z,0.00
2022-11-14T05:04:31.150Z,0.00
2022-11-14T05:06:59.645Z,0.00
2022-11-14T05:09:28.194Z,0.00
2022-11-14T05:11:56.651Z,0.00
2022-11-14T05:14:26.517Z,0.00
2022-11-14T05:16:54.936Z,0.00
2022-11-14T05:19:23.515Z,0.00
2022-11-14T05:21:52.120Z,0.00
2022-11-14T05:24:20.637Z,0.00
2022-11-14T05:26:49.114Z,0.00
2022-11-14T05:29:17.630Z,0.00
2022-11-14T05:31:47.440Z,0.00
2022-11-14T05:34:15.874Z,0.00
2022-11-14T05:36:44.291Z,0.00
2022-11-14T05:39:12.724Z,0.00
2022-11-14T05:41:41.158Z,0.00
2022-11-14T05:44:09.809Z,0.00
2022-11-14T05:46:38.403Z,0.00
2022-11-14T05:49:08.302Z,0.00
2022-11-14T05:51:36.721Z,0.00
2022-11-14T05:54:05.273Z,0.00
2022-11-14T05:56:33.681Z,0.00
2022-11-14T05:59:02.169Z,0.00
2022-11-14T06:01:30.761Z,0.00
2022-11-14T06:03:59.314Z,0.00
2022-11-14T06:06:29.168Z,0.00
2022-11-14T06:08:57.637Z,0.00
2022-11-14T06:11:26.441Z,0.00
2022-11-14T06:13:54.946Z,0.00
2022-11-14T06:16:23.470Z,0.00
2022-11-14T06:18:54.243Z,0.00
2022-11-14T06:21:23.457Z,0.00
2022-11-14T06:23:53.295Z,0.00
2022-11-14T06:26:23.629Z,0.00
2022-11-14T06:28:52.784Z,0.00
2022-11-14T06:31:21.705Z,0.00
2022-11-14T06:33:50.505Z,0.00
2022-11-14T06:36:19.237Z,0.00
2022-11-14T06:38:47.726Z,0.00
2022-11-14T06:41:18.529Z,0.00
2022-11-14T06:43:47.609Z,0.00
2022-11-14T06:46:16.997Z,0.00
2022-11-14T06:48:45.922Z,0.00
2022-11-14T06:51:14.981Z,0.00
2022-11-14T06:53:43.768Z,0.00
2022-11-14T06:56:13.114Z,0.00
2022-11-14T06:58:43.942Z,0.00
2022-11-14T07:01:13.482Z,0.00
2022-11-14T07:03:42.204Z,0.00
2022-11-14T07:06:11.422Z,0.00
2022-11-14T07:08:39.897Z,0.00
2022-11-14T07:11:09.436Z,0.00
2022-11-14T07:13:38.614Z,0.00
2022-11-14T07:16:08.869Z,0.00
2022-11-14T07:18:37.298Z,0.00
2022-11-14T07:21:07.001Z,0.00
2022-11-14T07:23:36.077Z,0.00
2022-11-14T07:26:05.248Z,0.00
2022-11-14T07:28:33.897Z,0.00
2022-11-14T07:31:04.581Z,0.00
2022-11-14T07:33:34.564Z,0.00
2022-11-14T07:36:03.185Z,0.00
2022-11-14T07:38:32.639Z,0.00
2022-11-14T07:41:01.971Z,0.00
2022-11-14T07:43:30.709Z,0.00
2022-11-14T07:46:01.200Z,0.00
2022-11-14T07:48:29.948Z,0.00
2022-11-14T07:51:01.624Z,0.00
2022-11-14T07:53:30.154Z,0.00
2022-11-14T07:55:58.735Z,0.00
2022-11-14T07:58:27.402Z,0.00
2022-11-14T08:00:55.956Z,0.00
2022-11-14T08:03:24.453Z,0.00
2022-11-14T08:05:52.881Z,0.00
2022-11-14T08:08:22.719Z,0.00
2022-11-14T08:10:51.120Z,0.00
2022-11-14T08:13:34.868Z,0.00
2022-11-14T08:16:11.991Z,0.00
2022-11-14T08:18:41.706Z,0.00
2022-11-14T08:21:10.277Z,0.00
2022-11-14T08:23:40.379Z,0.00
2022-11-14T08:26:08.776Z,0.00
2022-11-14T08:28:37.342Z,0.00
2022-11-14T08:31:06.346Z,0.00
2022-11-14T08:33:34.842Z,0.00
2022-11-14T08:36:03.437Z,0.00
2022-11-14T08:38:33.255Z,0.00
2022-11-14T08:41:04.004Z,0.00
2022-11-14T08:43:32.524Z,0.00
2022-11-14T08:46:02.223Z,0.00
2022-11-14T08:48:31.755Z,0.00
2022-11-14T08:51:00.570Z,0.00
2022-11-14T08:53:29.068Z,0.00
2022-11-14T08:55:57.501Z,0.00
2022-11-14T08:58:29.200Z,0.00
2022-11-14T09:01:01.265Z,0.00
2022-11-14T09:03:29.734Z,0.00
2022-11-14T09:05:58.283Z,0.00
2022-11-14T09:08:27.318Z,0.00
2022-11-14T09:10:55.997Z,0.00
2022-11-14T09:13:24.541Z,0.00
2022-11-14T09:15:54.360Z,0.00
2022-11-14T09:18:22.780Z,0.00
2022-11-14T09:20:51.255Z,0.00
2022-11-14T09:23:19.667Z,0.00
2022-11-14T09:25:49.319Z,0.00
2022-11-14T09:28:17.802Z,0.00
2022-11-14T09:30:46.277Z,0.00
2022-11-14T09:33:16.046Z,0.00
2022-11-14T09:35:44.549Z,0.00
2022-11-14T09:38:13.418Z,0.00
2022-11-14T09:40:48.418Z,0.00
2022-11-14T09:43:30.612Z,0.00
2022-11-14T09:45:59.286Z,0.00
2022-11-14T09:48:30.918Z,0.00
2022-11-14T09:51:09.460Z,0.00
2022-11-14T09:53:42.010Z,0.00
2022-11-14T09:56:13.770Z,0.00
2022-11-14T09:58:43.306Z,0.00
2022-11-14T10:01:14.552Z,18.20
2022-11-14T10:03:51.668Z,17.67
2022-11-14T10:06:28.909Z,18.00
2022-11-14T10:09:04.963Z,17.87
2022-11-14T10:11:36.353Z,19.20
2022-11-14T10:14:10.681Z,17.87
2022-11-14T10:16:44.093Z,17.97
2022-11-14T10:19:20.920Z,18.20
2022-11-14T10:21:57.125Z,18.00
2022-11-14T10:24:38.580Z,18.40
2022-11-14T10:27:07.883Z,17.27
2022-11-14T10:29:43.047Z,18.23
2022-11-14T10:32:16.355Z,17.90
2022-11-14T10:34:48.329Z,18.30
2022-11-14T10:37:20.228Z,18.33
2022-11-14T10:39:51.937Z,19.17
2022-11-14T10:42:24.887Z,17.73
2022-11-14T10:44:56.898Z,18.53
2022-11-14T10:47:26.661Z,18.97
2022-11-14T10:49:58.004Z,18.40
2022-11-14T10:52:32.625Z,18.20
2022-11-14T10:55:02.069Z,18.07
2022-11-14T10:57:30.700Z,18.63
2022-11-14T10:59:59.138Z,18.30
2022-11-14T11:02:28.907Z,17.80
2022-11-14T11:05:06.761Z,18.00
2022-11-14T11:08:28.185Z,17.70
2022-11-14T11:11:16.863Z,17.53
2022-11-14T11:13:51.196Z,17.67
2022-11-14T11:16:21.938Z,18.07
2022-11-14T11:18:50.892Z,19.17
2022-11-14T11:21:21.723Z,18.77
2022-11-14T11:23:51.062Z,18.33
2022-11-14T11:26:24.284Z,18.03
2022-11-14T11:29:03.790Z,17.57
2022-11-14T11:31:50.813Z,18.13
2022-11-14T11:34:21.411Z,17.20
2022-11-14T11:36:54.129Z,18.63
2022-11-14T11:39:24.785Z,17.77
2022-11-14T11:42:11.044Z,16.87
2022-11-14T11:44:42.437Z,17.27
2022-11-14T11:47:13.422Z,16.87
2022-11-14T11:49:50.078Z,17.00
2022-11-14T11:52:28.514Z,17.90
2022-11-14T11:55:01.858Z,17.57
2022-11-14T11:57:32.799Z,18.00
2022-11-14T12:00:04.972Z,17.27
2022-11-14T12:02:33.531Z,17.60
2022-11-14T12:05:02.367Z,16.57
2022-11-14T12:07:40.168Z,18.30
2022-11-14T12:10:13.657Z,18.00
2022-11-14T12:12:53.622Z,17.27
2022-11-14T12:15:26.208Z,17.30
2022-11-14T12:18:21.820Z,17.90
2022-11-14T12:20:57.716Z,17.53
2022-11-14T12:23:45.323Z,17.07
2022-11-14T12:26:22.622Z,17.90
2022-11-14T12:29:00.254Z,17.47
2022-11-14T12:31:29.640Z,18.30
2022-11-14T12:34:00.242Z,17.57
2022-11-14T12:36:31.068Z,17.93
2022-11-14T12:39:00.257Z,19.10
2022-11-14T12:41:31.016Z,17.40
2022-11-14T12:44:14.346Z,18.87
2022-11-14T12:46:57.667Z,18.20
2022-11-14T12:49:39.303Z,17.23
2022-11-14T12:52:28.630Z,17.00
2022-11-14T12:54:57.096Z,17.53
2022-11-14T12:57:48.738Z,17.73
2022-11-14T13:00:17.996Z,17.47
2022-11-14T13:02:51.332Z,17.37
2022-11-14T13:05:35.449Z,17.67
2022-11-14T13:08:11.801Z,17.10
2022-11-14T13:10:40.875Z,16.73
2022-11-14T13:13:40.563Z,16.33
2022-11-14T13:16:40.950Z,15.63
2022-11-14T13:19:33.200Z,15.97
2022-11-14T13:22:20.483Z,15.43
2022-11-14T13:25:07.764Z,15.60
2022-11-14T13:28:06.099Z,15.30
2022-11-14T13:30:40.108Z,15.47
2022-11-14T13:33:10.002Z,16.03
2022-11-14T13:35:50.841Z,16.20
2022-11-14T13:38:33.623Z,16.13
2022-11-14T13:41:07.738Z,15.23
2022-11-14T13:43:46.577Z,16.20
2022-11-14T13:46:20.912Z,16.37
2022-11-14T13:49:05.052Z,16.50
2022-11-14T13:51:43.419Z,17.27
2022-11-14T13:54:17.465Z,17.17
2022-11-14T13:56:56.289Z,16.50
2022-11-14T13:59:46.465Z,27.90
2022-11-14T14:02:20.791Z,17.37
2022-11-14T14:04:54.305Z,18.30
2022-11-14T14:07:28.706Z,18.07
2022-11-14T14:10:02.060Z,20.50
2022-11-14T14:12:38.991Z,17.90
2022-11-14T14:15:19.386Z,18.43
2022-11-14T14:17:52.536Z,17.70
2022-11-14T14:20:28.699Z,17.90
2022-11-14T14:23:00.986Z,18.57
2022-11-14T14:25:33.270Z,18.97
2022-11-14T14:28:05.843Z,19.30
2022-11-14T14:30:34.601Z,17.87
2022-11-14T14:33:11.695Z,18.07
2022-11-14T14:35:51.757Z,18.30
2022-11-14T14:38:28.288Z,19.67
2022-11-14T14:40:57.605Z,18.90
2022-11-14T14:43:27.517Z,18.63
2022-11-14T14:45:56.128Z,19.97
2022-11-14T14:48:25.668Z,18.07
2022-11-14T14:50:56.674Z,18.67
2022-11-14T14:53:25.912Z,17.97
2022-11-14T14:55:55.873Z,17.67
2022-11-14T14:58:28.177Z,17.83
2022-11-14T15:00:57.960Z,17.03
2022-11-14T15:03:27.605Z,18.77
2022-11-14T15:06:01.433Z,17.80
2022-11-14T15:08:30.676Z,17.50
2022-11-14T15:11:01.275Z,18.43
2022-11-14T15:13:30.675Z,18.97
2022-11-14T15:15:59.569Z,18.43
2022-11-14T15:18:29.054Z,15.33
2022-11-14T15:21:16.495Z,18.03
2022-11-14T15:23:45.150Z,18.10
2022-11-14T15:26:15.412Z,18.73
2022-11-14T15:28:44.271Z,17.67
2022-11-14T15:31:19.852Z,20.00
2022-11-14T15:33:49.223Z,19.03
2022-11-14T15:36:19.241Z,19.93
2022-11-14T15:39:01.323Z,21.73
2022-11-14T15:41:30.790Z,19.47
2022-11-14T15:44:05.852Z,21.50
2022-11-14T15:46:42.418Z,21.20
2022-11-14T15:49:11.761Z,18.80
2022-11-14T15:51:44.435Z,19.60
2022-11-14T15:54:26.615Z,21.03
2022-11-14T15:56:55.824Z,19.60
2022-11-14T15:59:24.330Z,20.53
2022-11-14T16:01:54.643Z,0.00
2022-11-14T16:04:23.834Z,14.83
2022-11-14T16:06:53.959Z,20.40
2022-11-14T16:09:23.151Z,0.00
2022-11-14T16:11:51.609Z,0.00
2022-11-14T16:14:20.105Z,0.00
2022-11-14T16:16:48.571Z,0.00
2022-11-14T16:19:18.078Z,0.00
2022-11-14T16:21:46.665Z,0.00
2022-11-14T16:24:20.533Z,0.00
2022-11-14T16:26:49.293Z,0.00
2022-11-14T16:29:17.859Z,0.00
2022-11-14T16:31:47.303Z,0.00
2022-11-14T16:34:17.820Z,0.00
2022-11-14T16:36:46.379Z,0.00
2022-11-14T16:39:14.837Z,0.00
2022-11-14T16:41:44.740Z,0.00
2022-11-14T16:44:17.664Z,0.00
2022-11-14T16:46:46.653Z,0.00
2022-11-14T16:49:15.764Z,0.00
2022-11-14T16:51:49.494Z,0.00
2022-11-14T16:54:18.645Z,0.00
2022-11-14T16:56:48.501Z,0.00
2022-11-14T16:59:17.178Z,0.00
2022-11-14T17:01:46.857Z,0.00
2022-11-14T17:04:15.373Z,0.00
2022-11-14T17:06:43.887Z,0.00
2022-11-14T17:09:14.278Z,0.00
2022-11-14T17:11:44.174Z,0.00
2022-11-14T17:14:14.096Z,0.00
2022-11-14T17:16:42.552Z,0.00
2022-11-14T17:19:10.966Z,0.00
2022-11-14T17:21:39.426Z,0.00
2022-11-14T17:24:08.076Z,0.00
2022-11-14T17:26:36.728Z,0.00
2022-11-14T17:29:05.558Z,0.00
2022-11-14T17:31:38.432Z,0.00
2022-11-14T17:34:10.658Z,0.00
2022-11-14T17:36:39.121Z,0.00
2022-11-14T17:39:07.593Z,0.00
2022-11-14T17:41:36.060Z,0.00
2022-11-14T17:44:09.691Z,0.00
2022-11-14T17:46:39.528Z,0.00
2022-11-14T17:49:07.957Z,0.00
2022-11-14T17:51:36.420Z,0.00
2022-11-14T17:54:04.924Z,0.00
2022-11-14T17:56:33.402Z,0.00
2022-11-14T17:59:01.801Z,0.00
2022-11-14T18:01:31.490Z,0.00
2022-11-14T18:04:05.717Z,0.00
2022-11-14T18:06:35.580Z,0.00
2022-11-14T18:09:08.134Z,0.00
2022-11-14T18:11:38.655Z,0.00
2022-11-14T18:14:07.696Z,0.00
2022-11-14T18:17:05.250Z,0.00
2022-11-14T18:19:26.034Z,0.00
2022-11-14T18:21:54.469Z,0.00
2022-11-14T18:24:23.698Z,0.00
2022-11-14T18:26:52.372Z,0.00
2022-11-14T18:29:20.800Z,0.00
2022-11-14T18:31:49.707Z,0.00
2022-11-14T18:34:18.149Z,0.00
2022-11-14T18:36:48.625Z,0.00
2022-11-14T18:39:17.055Z,0.00
2022-11-14T18:41:45.525Z,0.00
2022-11-14T18:44:13.986Z,0.00
2022-11-14T18:46:42.464Z,0.00
2022-11-14T18:49:11.253Z,0.00
2022-11-14T18:51:42.269Z,0.00
2022-11-14T18:54:13.772Z,0.00
2022-11-14T18:56:42.452Z,0.00
2022-11-14T18:59:11.080Z,0.00
2022-11-14T19:01:39.676Z,0.00
2022-11-14T19:04:08.935Z,0.00
2022-11-14T19:06:38.412Z,0.00
2022-11-14T19:09:11.194Z,0.00
2022-11-14T19:11:59.094Z,0.00
2022-11-14T19:14:29.971Z,0.00
2022-11-14T19:16:59.619Z,0.00
2022-11-14T19:19:28.122Z,0.00
2022-11-14T19:21:56.669Z,0.00
2022-11-14T19:24:25.093Z,0.00
2022-11-14T19:26:57.104Z,0.00
2022-11-14T19:29:25.553Z,0.00
2022-11-14T19:31:54.674Z,0.00
2022-11-14T19:34:23.083Z,0.00
2022-11-14T19:37:00.382Z,0.00
2022-11-14T19:39:29.658Z,0.00
2022-11-14T19:41:59.522Z,0.00
2022-11-14T19:44:27.942Z,0.00
2022-11-14T19:46:56.418Z,0.00
2022-11-14T19:49:25.313Z,0.00
2022-11-14T19:51:54.644Z,0.00
2022-11-14T19:54:23.080Z,0.00
2022-11-14T19:56:51.633Z,0.00
2022-11-14T19:59:24.356Z,0.00
2022-11-14T20:01:55.692Z,0.00
2022-11-14T20:04:24.323Z,0.00
2022-11-14T20:06:52.885Z,0.00
2022-11-14T20:09:21.424Z,0.00
2022-11-14T20:11:49.952Z,0.00
2022-11-14T20:14:18.539Z,0.00
2022-11-14T20:16:48.390Z,0.00
2022-11-14T20:19:17.074Z,0.00
2022-11-14T20:21:45.860Z,0.00
2022-11-14T20:24:17.674Z,0.00
2022-11-14T20:26:46.627Z,0.00
2022-11-14T20:29:15.050Z,0.00
2022-11-14T20:31:43.521Z,0.00
2022-11-14T20:34:13.789Z,0.00
2022-11-14T20:37:10.540Z,0.00
2022-11-14T20:39:30.897Z,0.00
2022-11-14T20:41:59.377Z,0.00
2022-11-14T20:44:27.816Z,0.00
2022-11-14T20:46:57.087Z,0.00
2022-11-14T20:49:26.916Z,0.00
2022-11-14T20:51:55.403Z,0.00
2022-11-14T20:54:25.474Z,0.00
2022-11-14T20:56:53.970Z,0.00
2022-11-14T20:59:22.395Z,0.00
2022-11-14T21:01:51.059Z,0.00
2022-11-14T21:04:19.493Z,0.00
2022-11-14T21:06:49.362Z,0.00
2022-11-14T21:09:17.896Z,0.00
2022-11-14T21:11:46.378Z,0.00
2022-11-14T21:14:14.901Z,0.00
2022-11-14T21:16:43.710Z,0.00
2022-11-14T21:19:12.150Z,0.00
2022-11-14T21:21:40.687Z,0.00
2022-11-14T21:24:10.657Z,0.00
2022-11-14T21:26:40.481Z,0.00
2022-11-14T21:29:10.183Z,0.00
2022-11-14T21:31:39.411Z,0.00
2022-11-14T21:34:09.001Z,0.00
2022-11-14T21:36:45.018Z,0.00
2022-11-14T21:39:17.410Z,0.00
2022-11-14T21:41:48.508Z,0.00
2022-11-14T21:44:17.834Z,0.00
2022-11-14T21:46:48.784Z,0.00
2022-11-14T21:49:17.717Z,0.00
2022-11-14T21:51:47.214Z,0.00
2022-11-14T21:54:17.204Z,0.00
2022-11-14T21:56:45.659Z,0.00
2022-11-14T21:59:16.917Z,0.00
2022-11-14T22:02:03.978Z,0.00
2022-11-14T22:04:32.936Z,0.00
2022-11-14T22:07:01.933Z,0.00
2022-11-14T22:09:32.459Z,0.00
2022-11-14T22:12:01.132Z,0.00
2022-11-14T22:14:30.357Z,0.00
2022-11-14T22:16:59.131Z,0.00
2022-11-14T22:19:27.593Z,0.00
2022-11-14T22:21:56.099Z,0.00
2022-11-14T22:24:24.775Z,0.00
2022-11-14T22:26:54.602Z,0.00
2022-11-14T22:29:23.007Z,0.00
2022-11-14T22:31:53.063Z,0.00
2022-11-14T22:34:21.554Z,0.00
2022-11-14T22:36:50.024Z,0.00
2022-11-14T22:39:18.436Z,0.00
2022-11-14T22:41:46.866Z,0.00
2022-11-14T22:44:16.658Z,0.00
2022-11-14T22:46:45.109Z,0.00
2022-11-14T22:49:17.171Z,0.00
2022-11-14T22:51:48.292Z,0.00
2022-11-14T22:54:16.696Z,0.00
2022-11-14T22:56:45.172Z,0.00
2022-11-14T22:59:13.571Z,0.00
2022-11-14T23:01:43.414Z,0.00
2022-11-14T23:04:11.911Z,0.00
2022-11-14T23:06:40.400Z,0.00
2022-11-14T23:09:08.845Z,0.00
2022-11-14T23:11:37.288Z,0.00
2022-11-14T23:14:05.873Z,0.00
2022-11-14T23:16:35.931Z,0.00
2022-11-14T23:19:06.405Z,0.00
2022-11-14T23:21:36.421Z,0.00
2022-11-14T23:24:06.260Z,0.00
2022-11-14T23:26:34.767Z,0.00
2022-11-14T23:29:03.300Z,0.00
2022-11-14T23:31:31.768Z,0.00
2022-11-14T23:34:00.206Z,0.00
2022-11-14T23:36:30.053Z,0.00
2022-11-14T23:38:58.485Z,0.00
2022-11-14T23:41:26.954Z,0.00
2022-11-14T23:43:55.418Z,0.00
2022-11-14T23:46:23.850Z,0.00
2022-11-14T23:48:53.467Z,0.00
2022-11-14T23:51:21.986Z,0.00
2022-11-14T23:53:52.067Z,0.00
2022-11-14T23:56:20.553Z,0.00
2022-11-14T23:58:48.977Z,0.00
